Time;durP1;ratioP1;P1;durP2;ratioP2;P2;SDS_P1;SDS_P2;PMS_P1;PMS_P2;Temp;Humidity;BMP_temperature;BMP_pressure;BME280_temperature;BME280_humidity;BME280_pressure;Samples;Min_cycle;Max_cycle;Signal;HPM_P1;HPM_P2
2021/10/04 00:02:05;;;;;;;0.50;0.40;;;11.50;99.90;;;;;;5036912;28;20204;-77
2021/10/04 00:04:32;;;;;;;0.50;0.40;;;11.50;99.90;;;;;;5036978;28;20240;-79
2021/10/04 00:06:58;;;;;;;0.50;0.40;;;11.50;99.90;;;;;;5037713;28;20204;-77
2021/10/04 00:09:25;;;;;;;0.50;0.40;;;11.40;99.90;;;;;;5036605;28;20259;-80
2021/10/04 00:11:53;;;;;;;0.50;0.40;;;11.40;99.90;;;;;;5036468;28;20219;-79
2021/10/04 00:14:21;;;;;;;0.50;0.40;;;11.40;99.90;;;;;;5036867;28;20244;-79
2021/10/04 00:16:49;;;;;;;0.50;0.40;;;11.40;99.90;;;;;;5036683;28;20193;-79
2021/10/04 00:19:16;;;;;;;0.82;0.80;;;11.40;99.90;;;;;;5036891;28;20201;-79
2021/10/04 00:21:42;;;;;;;0.93;0.80;;;11.30;99.90;;;;;;5035852;28;20205;-81
2021/10/04 00:24:09;;;;;;;0.50;0.40;;;11.40;99.90;;;;;;5037096;28;20228;-79
2021/10/04 00:26:36;;;;;;;0.50;0.40;;;11.40;99.90;;;;;;5037153;28;20202;-79
2021/10/04 00:29:03;;;;;;;0.50;0.40;;;11.40;99.90;;;;;;5036415;28;20200;-78
2021/10/04 00:31:32;;;;;;;0.50;0.40;;;11.30;99.90;;;;;;5036202;28;20226;-79
2021/10/04 00:33:59;;;;;;;0.50;0.40;;;11.20;99.90;;;;;;5037512;28;20359;-79
2021/10/04 00:36:26;;;;;;;0.50;0.40;;;11.20;99.90;;;;;;5037354;28;20192;-80
2021/10/04 00:38:53;;;;;;;0.52;0.50;;;11.20;99.90;;;;;;5037162;28;20667;-79
2021/10/04 00:41:19;;;;;;;0.50;0.40;;;11.20;99.90;;;;;;5035876;28;20196;-79
2021/10/04 00:43:46;;;;;;;0.50;0.40;;;11.20;99.90;;;;;;5036518;28;20227;-79
2021/10/04 00:46:13;;;;;;;0.50;0.40;;;11.20;99.90;;;;;;5037033;28;20197;-78
2021/10/04 00:48:41;;;;;;;0.50;0.40;;;11.20;99.90;;;;;;5036200;28;20255;-78
2021/10/04 00:51:08;;;;;;;0.50;0.40;;;11.10;99.90;;;;;;5036435;28;20735;-78
2021/10/04 00:53:35;;;;;;;0.50;0.40;;;11.10;99.90;;;;;;5036177;28;20225;-75
2021/10/04 00:56:01;;;;;;;0.50;0.40;;;11.00;99.90;;;;;;5036411;28;20201;-79
2021/10/04 00:58:28;;;;;;;0.50;0.40;;;11.00;99.90;;;;;;5036173;28;20198;-79
2021/10/04 01:00:55;;;;;;;0.50;0.40;;;11.00;99.90;;;;;;5035601;28;20201;-79
2021/10/04 01:03:22;;;;;;;0.50;0.40;;;11.00;99.90;;;;;;5035915;28;20216;-79
2021/10/04 01:05:50;;;;;;;0.50;0.40;;;11.00;99.90;;;;;;5035825;28;20205;-78
2021/10/04 01:08:16;;;;;;;0.50;0.40;;;11.10;99.90;;;;;;5036057;28;20197;-78
2021/10/04 01:10:43;;;;;;;0.50;0.40;;;11.10;99.90;;;;;;5035992;28;20209;-80
2021/10/04 01:13:10;;;;;;;0.50;0.40;;;11.00;99.90;;;;;;5036480;28;20228;-79
2021/10/04 01:15:37;;;;;;;0.50;0.40;;;11.10;99.90;;;;;;5036720;28;20207;-78
2021/10/04 01:18:06;;;;;;;0.50;0.40;;;11.00;99.90;;;;;;5036263;28;20196;-79
2021/10/04 01:20:34;;;;;;;0.50;0.40;;;11.10;99.90;;;;;;5035411;28;20193;-79
2021/10/04 01:23:01;;;;;;;0.50;0.40;;;11.20;99.90;;;;;;5035695;28;20226;-79
2021/10/04 01:25:28;;;;;;;0.50;0.40;;;11.20;99.90;;;;;;5036897;28;20551;-80
2021/10/04 01:27:56;;;;;;;0.50;0.40;;;11.20;99.90;;;;;;5036474;28;20197;-79
2021/10/04 01:30:24;;;;;;;0.50;0.40;;;11.20;99.90;;;;;;5035632;28;20221;-80
2021/10/04 01:32:52;;;;;;;0.50;0.40;;;11.20;99.90;;;;;;5035483;28;20206;-80
2021/10/04 01:35:19;;;;;;;0.50;0.40;;;11.30;99.90;;;;;;5036493;28;20201;-78
2021/10/04 01:37:48;;;;;;;0.50;0.40;;;11.30;99.90;;;;;;5036605;28;20193;-79
2021/10/04 01:40:17;;;;;;;0.50;0.40;;;11.30;99.90;;;;;;5035933;28;20582;-79
2021/10/04 01:42:44;;;;;;;0.50;0.40;;;11.30;99.90;;;;;;5036277;28;20256;-80
2021/10/04 01:45:13;;;;;;;0.50;0.40;;;11.30;99.90;;;;;;5036015;28;20194;-79
2021/10/04 01:47:40;;;;;;;0.50;0.40;;;11.30;99.90;;;;;;5036251;28;20205;-78
2021/10/04 01:50:09;;;;;;;0.50;0.40;;;11.30;99.90;;;;;;5036184;28;20196;-79
2021/10/04 01:52:35;;;;;;;0.50;0.40;;;11.30;99.90;;;;;;5036662;28;20199;-79
2021/10/04 01:55:05;;;;;;;0.50;0.40;;;11.40;99.90;;;;;;5036133;28;20205;-80
2021/10/04 01:57:32;;;;;;;0.50;0.40;;;11.40;99.90;;;;;;5037020;28;20198;-80
2021/10/04 02:00:01;;;;;;;0.50;0.40;;;11.40;99.90;;;;;;5034963;28;20204;-79
2021/10/04 02:02:29;;;;;;;0.50;0.40;;;11.40;99.90;;;;;;5036444;28;20216;-79
2021/10/04 02:04:55;;;;;;;0.50;0.40;;;11.50;99.90;;;;;;5035976;28;20220;-79
2021/10/04 02:07:22;;;;;;;0.50;0.50;;;11.50;99.90;;;;;;5035878;28;20201;-79
2021/10/04 02:09:49;;;;;;;0.50;0.40;;;11.50;99.90;;;;;;5036014;28;20197;-80
2021/10/04 02:12:17;;;;;;;0.50;0.50;;;11.50;99.90;;;;;;5035446;28;20221;-80
2021/10/04 02:14:44;;;;;;;0.50;0.40;;;11.50;99.90;;;;;;5035844;28;20604;-77
2021/10/04 02:17:11;;;;;;;17.05;1.23;;;11.50;99.90;;;;;;5036532;28;20205;-79
2021/10/04 02:19:38;;;;;;;0.50;0.43;;;11.50;99.90;;;;;;5036651;28;20196;-80
2021/10/04 02:22:05;;;;;;;0.50;0.40;;;11.50;99.90;;;;;;5035550;28;20208;-80
2021/10/04 02:24:31;;;;;;;0.50;0.40;;;11.60;99.90;;;;;;5047371;22;20232;-81
2021/10/04 02:26:58;;;;;;;0.50;0.40;;;11.60;99.90;;;;;;5028274;28;20647;-81
2021/10/04 02:29:26;;;;;;;0.50;0.40;;;11.60;99.90;;;;;;5036056;28;20536;-81
2021/10/04 02:31:53;;;;;;;5.70;3.15;;;11.60;99.90;;;;;;5035063;28;20224;-81
2021/10/04 02:34:20;;;;;;;0.60;0.50;;;11.60;99.90;;;;;;5035096;28;20220;-78
2021/10/04 02:36:47;;;;;;;1.30;1.10;;;11.60;99.90;;;;;;5034248;28;20790;-81
2021/10/04 02:39:13;;;;;;;0.50;0.40;;;11.60;99.90;;;;;;5034650;28;20704;-79
2021/10/04 02:41:40;;;;;;;0.50;0.40;;;11.60;99.90;;;;;;5034134;28;20199;-81
2021/10/04 02:44:07;;;;;;;0.85;0.85;;;11.50;99.90;;;;;;5034933;28;20199;-82
2021/10/04 02:46:35;;;;;;;0.50;0.40;;;11.50;99.90;;;;;;5034522;28;20672;-81
2021/10/04 02:49:01;;;;;;;0.50;0.40;;;11.50;99.90;;;;;;5034242;28;20197;-81
2021/10/04 02:51:28;;;;;;;0.50;0.40;;;11.50;99.90;;;;;;5034493;28;20218;-81
2021/10/04 02:53:55;;;;;;;0.50;0.40;;;11.50;99.90;;;;;;5034690;28;20212;-81
2021/10/04 02:56:22;;;;;;;0.50;0.40;;;11.50;99.90;;;;;;5034495;28;20205;-79
2021/10/04 02:58:48;;;;;;;0.50;0.40;;;11.50;99.90;;;;;;5035076;28;20199;-81
2021/10/04 03:01:15;;;;;;;0.50;0.40;;;11.50;99.90;;;;;;5034068;28;20193;-81
2021/10/04 03:03:43;;;;;;;0.50;0.50;;;11.50;99.90;;;;;;5034628;28;20197;-80
2021/10/04 03:06:10;;;;;;;0.50;0.40;;;11.60;99.90;;;;;;5034897;28;20221;-81
2021/10/04 03:08:37;;;;;;;0.50;0.40;;;11.50;99.90;;;;;;5034518;28;20210;-82
2021/10/04 03:11:03;;;;;;;0.50;0.40;;;11.50;99.90;;;;;;5035463;28;20216;-83
2021/10/04 03:13:30;;;;;;;0.50;0.50;;;11.50;99.90;;;;;;5037930;28;20611;-82
2021/10/04 03:15:57;;;;;;;0.50;0.40;;;11.40;99.90;;;;;;5038613;28;20222;-82
2021/10/04 03:18:23;;;;;;;0.50;0.40;;;11.50;99.90;;;;;;5038222;28;20212;-81
2021/10/04 03:20:52;;;;;;;0.50;0.40;;;11.50;99.90;;;;;;5038537;28;20614;-82
2021/10/04 03:23:18;;;;;;;0.50;0.40;;;11.50;99.90;;;;;;5038474;28;20202;-82
2021/10/04 03:25:45;;;;;;;0.50;0.40;;;11.40;99.90;;;;;;5038951;28;20230;-83
2021/10/04 03:28:12;;;;;;;0.50;0.45;;;11.50;99.90;;;;;;5037958;28;20200;-80
2021/10/04 03:30:39;;;;;;;0.50;0.40;;;11.50;99.90;;;;;;5038797;28;20224;-82
2021/10/04 03:33:06;;;;;;;0.50;0.40;;;11.50;99.90;;;;;;5045750;28;20204;-78
2021/10/04 03:35:33;;;;;;;0.50;0.40;;;11.50;99.90;;;;;;5057413;28;20219;-80
2021/10/04 03:38:01;;;;;;;0.50;0.40;;;11.60;99.90;;;;;;5042011;28;20269;-83
2021/10/04 03:40:28;;;;;;;0.50;0.40;;;11.50;99.90;;;;;;5039812;28;20205;-83
2021/10/04 03:42:54;;;;;;;0.50;0.40;;;11.60;99.90;;;;;;5039491;28;20203;-83
2021/10/04 03:45:21;;;;;;;1.13;1.02;;;11.60;99.90;;;;;;5039409;28;20594;-82
2021/10/04 03:47:48;;;;;;;0.50;0.40;;;11.60;99.90;;;;;;5039527;28;20203;-81
2021/10/04 03:50:16;;;;;;;0.50;0.40;;;11.60;99.90;;;;;;5039136;28;20202;-82
2021/10/04 03:52:43;;;;;;;0.60;0.52;;;11.70;99.90;;;;;;5039662;28;20708;-83
2021/10/04 03:55:13;;;;;;;0.50;0.40;;;11.70;99.90;;;;;;5038576;28;20221;-81
2021/10/04 03:57:41;;;;;;;0.50;0.40;;;11.70;99.90;;;;;;5039932;28;20451;-83
2021/10/04 04:00:11;;;;;;;0.50;0.40;;;11.70;99.90;;;;;;5039678;28;20451;-81
2021/10/04 04:02:38;;;;;;;0.50;0.40;;;11.70;99.90;;;;;;5038718;28;20272;-84
2021/10/04 04:05:05;;;;;;;0.50;0.40;;;11.70;99.90;;;;;;5037844;28;20217;-80
2021/10/04 04:07:32;;;;;;;0.50;0.40;;;11.70;99.90;;;;;;5038388;28;20264;-83
2021/10/04 04:09:59;;;;;;;0.50;0.40;;;11.70;99.90;;;;;;5037984;28;20203;-81
2021/10/04 04:12:27;;;;;;;0.50;0.40;;;11.70;99.90;;;;;;5038997;28;20224;-80
2021/10/04 04:14:53;;;;;;;0.50;0.40;;;11.60;99.90;;;;;;5040261;28;20220;-83
2021/10/04 04:17:20;;;;;;;0.50;0.40;;;11.60;99.90;;;;;;5038687;28;20202;-83
2021/10/04 04:19:47;;;;;;;0.50;0.40;;;11.70;99.90;;;;;;5038082;28;20199;-81
2021/10/04 04:22:13;;;;;;;0.50;0.40;;;11.70;99.90;;;;;;5033407;28;20199;-80
2021/10/04 04:24:40;;;;;;;0.60;0.50;;;11.70;99.90;;;;;;5024210;28;20233;-81
2021/10/04 04:27:07;;;;;;;0.50;0.40;;;11.70;99.90;;;;;;5019860;28;20206;-82
2021/10/04 04:29:37;;;;;;;0.50;0.40;;;11.70;99.90;;;;;;5034582;28;20242;-82
2021/10/04 04:32:04;;;;;;;0.50;0.40;;;11.70;99.90;;;;;;5038484;28;20221;-81
2021/10/04 04:34:31;;;;;;;0.50;0.40;;;11.70;99.90;;;;;;5037804;28;20720;-83
2021/10/04 04:36:57;;;;;;;0.50;0.40;;;11.70;99.90;;;;;;5041071;28;20200;-81
2021/10/04 04:39:25;;;;;;;0.50;0.40;;;11.70;99.90;;;;;;5031709;28;20206;-83
2021/10/04 04:41:51;;;;;;;0.50;0.40;;;11.80;99.90;;;;;;5026605;28;20823;-82
2021/10/04 04:44:18;;;;;;;0.50;0.40;;;11.80;99.90;;;;;;5037876;28;20250;-82
2021/10/04 04:46:46;;;;;;;0.50;0.40;;;11.80;99.90;;;;;;5039011;28;20442;-81
2021/10/04 04:49:13;;;;;;;0.50;0.40;;;11.80;99.90;;;;;;5037492;28;20441;-80
2021/10/04 04:51:40;;;;;;;0.50;0.40;;;11.80;99.90;;;;;;5038864;28;20218;-81
2021/10/04 04:54:07;;;;;;;0.50;0.40;;;11.80;99.90;;;;;;5038735;28;20433;-82
2021/10/04 04:56:33;;;;;;;0.75;0.75;;;11.80;99.90;;;;;;5038882;28;20441;-81
2021/10/04 04:59:00;;;;;;;0.50;0.40;;;11.90;99.90;;;;;;5040003;28;20233;-79
2021/10/04 05:01:27;;;;;;;0.50;0.40;;;11.80;99.90;;;;;;5039090;28;20218;-82
2021/10/04 05:03:55;;;;;;;0.50;0.40;;;11.80;99.90;;;;;;5039405;28;20197;-82
2021/10/04 05:06:22;;;;;;;0.50;0.40;;;11.80;99.90;;;;;;5038800;28;20259;-80
2021/10/04 05:08:48;;;;;;;0.50;0.40;;;11.90;99.90;;;;;;5039809;28;20198;-79
2021/10/04 05:11:15;;;;;;;0.50;0.40;;;11.80;99.90;;;;;;5038920;28;20228;-81
2021/10/04 05:13:43;;;;;;;2.40;0.83;;;11.80;99.90;;;;;;5038120;28;20213;-81
2021/10/04 05:16:11;;;;;;;0.50;0.40;;;11.80;99.90;;;;;;5037769;28;20473;-81
2021/10/04 05:18:37;;;;;;;0.50;0.40;;;11.80;99.90;;;;;;5025649;28;20238;-81
2021/10/04 05:21:05;;;;;;;0.50;0.40;;;11.80;99.90;;;;;;5027251;28;20803;-82
2021/10/04 05:23:33;;;;;;;0.50;0.40;;;11.80;99.90;;;;;;5016783;28;20256;-83
2021/10/04 05:25:59;;;;;;;0.50;0.40;;;11.80;99.90;;;;;;5017760;28;20665;-83
2021/10/04 05:28:26;;;;;;;0.50;0.40;;;11.80;99.90;;;;;;5017914;28;20202;-82
2021/10/04 05:30:53;;;;;;;0.50;0.40;;;11.70;99.90;;;;;;5017554;28;20557;-82
2021/10/04 05:33:19;;;;;;;0.50;0.40;;;11.80;99.90;;;;;;5018277;28;20223;-81
2021/10/04 05:35:47;;;;;;;0.50;0.40;;;11.80;99.90;;;;;;5018564;28;20221;-84
2021/10/04 05:38:15;;;;;;;0.50;0.40;;;11.80;99.90;;;;;;5023604;28;20715;-82
2021/10/04 05:40:41;;;;;;;0.50;0.40;;;11.80;99.90;;;;;;5034456;28;20442;-80
2021/10/04 05:43:08;;;;;;;0.50;0.45;;;11.90;99.90;;;;;;5037132;28;20226;-81
2021/10/04 05:45:35;;;;;;;0.70;0.63;;;11.90;99.90;;;;;;5038121;28;20222;-82
2021/10/04 05:48:02;;;;;;;0.50;0.40;;;11.90;99.90;;;;;;5038698;28;20194;-81
2021/10/04 05:50:28;;;;;;;0.50;0.40;;;11.90;99.90;;;;;;5042555;28;20372;-82
2021/10/04 05:52:55;;;;;;;0.50;0.40;;;11.90;99.90;;;;;;5038617;28;20222;-81
2021/10/04 05:55:23;;;;;;;0.50;0.40;;;12.00;99.90;;;;;;5037549;28;20222;-79
2021/10/04 05:57:50;;;;;;;0.50;0.40;;;12.00;99.90;;;;;;5040196;28;20256;-80
2021/10/04 06:00:17;;;;;;;0.50;0.40;;;12.00;99.90;;;;;;5038488;28;20205;-83
2021/10/04 06:02:44;;;;;;;0.50;0.40;;;12.00;99.90;;;;;;5038380;28;20201;-82
2021/10/04 06:05:11;;;;;;;0.50;0.40;;;12.00;99.90;;;;;;5038267;28;20231;-83
2021/10/04 06:07:38;;;;;;;0.50;0.30;;;12.00;99.90;;;;;;5037630;28;20842;-81
2021/10/04 06:10:06;;;;;;;0.50;0.40;;;12.00;99.90;;;;;;5038054;28;20202;-78
2021/10/04 06:12:34;;;;;;;0.50;0.40;;;12.00;99.90;;;;;;5038510;28;20272;-82
2021/10/04 06:15:02;;;;;;;0.50;0.40;;;12.00;99.90;;;;;;5055126;28;20216;-80
2021/10/04 06:17:28;;;;;;;0.60;0.50;;;12.00;99.90;;;;;;5045336;28;20727;-82
2021/10/04 06:19:55;;;;;;;0.90;0.50;;;12.10;99.90;;;;;;5038740;28;20197;-80
2021/10/04 06:22:23;;;;;;;0.50;0.40;;;12.10;99.90;;;;;;5038718;28;20656;-83
2021/10/04 06:24:50;;;;;;;0.50;0.40;;;12.10;99.90;;;;;;5037907;28;20230;-82
2021/10/04 06:27:17;;;;;;;0.50;0.30;;;12.10;99.90;;;;;;5038983;28;20449;-82
2021/10/04 06:29:45;;;;;;;0.50;0.40;;;12.10;99.90;;;;;;5038203;28;20569;-83
2021/10/04 06:32:12;;;;;;;0.50;0.40;;;12.10;99.90;;;;;;5038170;28;20515;-83
2021/10/04 06:34:39;;;;;;;0.50;0.40;;;12.10;99.90;;;;;;5038000;28;20227;-80
2021/10/04 06:37:06;;;;;;;0.50;0.40;;;12.10;99.90;;;;;;5038122;28;20477;-82
2021/10/04 06:39:32;;;;;;;0.50;0.40;;;12.10;99.90;;;;;;5038176;28;20218;-83
2021/10/04 06:41:59;;;;;;;0.50;0.40;;;12.10;99.90;;;;;;5039464;28;20194;-83
2021/10/04 06:44:26;;;;;;;0.50;0.40;;;12.10;99.90;;;;;;5038018;28;20528;-84
2021/10/04 06:46:54;;;;;;;0.55;0.43;;;12.20;99.90;;;;;;5040875;28;20233;-82
2021/10/04 06:49:21;;;;;;;1.23;0.60;;;12.20;99.90;;;;;;5041623;28;20231;-82
2021/10/04 06:51:47;;;;;;;0.50;0.40;;;12.30;99.90;;;;;;5042209;28;20219;-83
2021/10/04 06:54:14;;;;;;;0.50;0.40;;;12.30;99.90;;;;;;5042430;28;20233;-83
2021/10/04 06:56:41;;;;;;;0.50;0.40;;;12.30;99.90;;;;;;5042227;28;20452;-82
2021/10/04 06:59:08;;;;;;;0.63;0.63;;;12.40;99.90;;;;;;5041344;28;20811;-83
2021/10/04 07:01:35;;;;;;;0.50;0.40;;;12.40;99.90;;;;;;5039653;28;20206;-84
2021/10/04 07:04:04;;;;;;;0.50;0.50;;;12.50;99.90;;;;;;5041305;28;20443;-82
2021/10/04 07:06:31;;;;;;;0.50;0.40;;;12.60;99.90;;;;;;5041223;28;20481;-83
2021/10/04 07:08:57;;;;;;;1.10;0.77;;;12.50;99.90;;;;;;5042991;28;20808;-83
2021/10/04 07:11:24;;;;;;;0.50;0.40;;;12.50;99.90;;;;;;5040790;28;20246;-82
2021/10/04 07:13:51;;;;;;;0.50;0.40;;;12.60;99.90;;;;;;5040355;28;20482;-83
2021/10/04 07:16:18;;;;;;;0.50;0.40;;;12.70;99.90;;;;;;5039941;28;20462;-83
2021/10/04 07:18:45;;;;;;;0.50;0.40;;;12.70;99.90;;;;;;5040890;28;20439;-81
2021/10/04 07:21:13;;;;;;;1.08;1.08;;;12.80;99.90;;;;;;5039791;28;20453;-83
2021/10/04 07:23:40;;;;;;;0.50;0.40;;;12.90;99.90;;;;;;5039363;28;20199;-83
2021/10/04 07:26:07;;;;;;;0.87;0.40;;;13.00;99.90;;;;;;5039545;28;20477;-82
2021/10/04 07:28:34;;;;;;;0.90;0.50;;;13.10;99.90;;;;;;5040015;28;20450;-83
2021/10/04 07:31:01;;;;;;;0.50;0.40;;;13.20;99.90;;;;;;5039911;28;20860;-84
2021/10/04 07:33:28;;;;;;;0.50;0.40;;;13.30;99.90;;;;;;5039852;28;20501;-82
2021/10/04 07:35:55;;;;;;;0.50;0.40;;;13.40;99.90;;;;;;5039699;28;20467;-83
2021/10/04 07:38:24;;;;;;;0.50;0.40;;;13.60;99.90;;;;;;5040257;28;20437;-83
2021/10/04 07:40:51;;;;;;;1.27;0.87;;;13.70;99.90;;;;;;5039715;28;20457;-84
2021/10/04 07:43:18;;;;;;;0.50;0.40;;;13.80;99.90;;;;;;5040370;28;20441;-81
2021/10/04 07:45:45;;;;;;;0.50;0.40;;;13.80;99.90;;;;;;5039795;28;20466;-83
2021/10/04 07:48:12;;;;;;;0.50;0.37;;;13.70;99.90;;;;;;5039701;28;20430;-83
2021/10/04 07:50:39;;;;;;;0.50;0.40;;;13.60;99.90;;;;;;5038621;28;20451;-83
2021/10/04 07:53:06;;;;;;;0.50;0.40;;;13.50;99.90;;;;;;5040625;28;20478;-83
2021/10/04 07:55:34;;;;;;;0.70;0.60;;;13.60;99.90;;;;;;5041034;28;20681;-83
2021/10/04 07:58:00;;;;;;;0.50;0.40;;;13.60;99.90;;;;;;5038689;28;20438;-81
2021/10/04 08:00:27;;;;;;;1.00;1.00;;;13.80;99.90;;;;;;5040893;28;20446;-81
2021/10/04 08:02:54;;;;;;;0.50;0.40;;;13.90;99.90;;;;;;5040884;28;20443;-82
2021/10/04 08:05:20;;;;;;;0.63;0.63;;;14.00;99.90;;;;;;5040517;28;20470;-82
2021/10/04 08:07:47;;;;;;;1.03;1.03;;;14.10;99.90;;;;;;5039136;28;20434;-82
2021/10/04 08:10:14;;;;;;;0.50;0.40;;;14.50;99.90;;;;;;5038933;28;20450;-82
2021/10/04 08:12:42;;;;;;;0.50;0.40;;;15.10;99.90;;;;;;5038590;28;20502;-82
2021/10/04 08:15:09;;;;;;;0.50;0.40;;;15.40;99.90;;;;;;5040062;28;20462;-82
2021/10/04 08:17:36;;;;;;;0.50;0.40;;;15.50;99.90;;;;;;5038406;28;20453;-81
2021/10/04 08:20:05;;;;;;;0.50;0.40;;;15.40;99.90;;;;;;5038356;28;20446;-78
2021/10/04 08:22:33;;;;;;;0.50;0.40;;;15.20;99.90;;;;;;5039680;28;20438;-81
2021/10/04 08:24:59;;;;;;;0.50;0.40;;;15.00;99.90;;;;;;5039502;28;20504;-82
2021/10/04 08:27:26;;;;;;;0.50;0.40;;;14.80;99.90;;;;;;5039522;28;20804;-82
2021/10/04 08:29:54;;;;;;;0.50;0.50;;;14.70;99.90;;;;;;5050437;22;20506;-79
2021/10/04 08:32:21;;;;;;;0.50;0.40;;;14.70;99.90;;;;;;5025816;28;20479;-80
2021/10/04 08:34:48;;;;;;;0.50;0.30;;;14.70;99.90;;;;;;5014863;28;20497;-79
2021/10/04 08:37:14;;;;;;;0.50;0.40;;;14.70;99.90;;;;;;5014510;28;20451;-79
2021/10/04 08:39:41;;;;;;;0.50;0.40;;;14.60;99.90;;;;;;5015093;28;20467;-77
2021/10/04 08:42:08;;;;;;;0.60;0.60;;;14.60;99.90;;;;;;5013678;28;20488;-78
2021/10/04 08:44:36;;;;;;;0.50;0.37;;;14.60;99.90;;;;;;5014371;28;20446;-78
2021/10/04 08:47:06;;;;;;;0.50;0.40;;;14.80;99.90;;;;;;5013941;28;20526;-78
2021/10/04 08:49:33;;;;;;;0.50;0.50;;;14.90;99.90;;;;;;5014241;28;20968;-79
2021/10/04 08:52:02;;;;;;;0.50;0.30;;;14.90;99.90;;;;;;5013313;28;20475;-79
2021/10/04 08:54:29;;;;;;;0.50;0.40;;;14.80;99.90;;;;;;5013765;28;20462;-79
2021/10/04 08:56:57;;;;;;;0.50;0.40;;;14.80;99.90;;;;;;5013926;28;20471;-78
2021/10/04 08:59:26;;;;;;;0.50;0.40;;;14.80;99.90;;;;;;5013509;28;20463;-78
2021/10/04 09:02:25;;;;;;;0.50;0.40;;;15.00;99.90;;;;;;5013733;28;20546;-79
2021/10/04 09:05:11;;;;;;;0.50;0.40;;;15.20;99.90;;;;;;5013256;28;20431;-79
2021/10/04 09:07:40;;;;;;;0.50;0.40;;;15.30;99.90;;;;;;5013755;28;20420;-78
2021/10/04 09:10:08;;;;;;;0.50;0.40;;;15.50;99.90;;;;;;5013089;28;20494;-77
2021/10/04 09:12:43;;;;;;;0.50;0.40;;;15.70;99.90;;;;;;5013086;28;20486;-78
2021/10/04 09:15:24;;;;;;;0.50;0.30;;;16.30;99.90;;;;;;5013886;28;21018;-79
2021/10/04 09:17:53;;;;;;;0.50;0.30;;;18.00;99.90;;;;;;5013171;28;20434;-76
2021/10/04 09:20:20;;;;;;;0.50;0.30;;;18.70;99.90;;;;;;5012916;28;20484;-78
2021/10/04 09:22:47;;;;;;;0.50;0.40;;;19.00;99.90;;;;;;5013516;28;20443;-79
2021/10/04 09:25:15;;;;;;;0.50;0.40;;;19.90;99.90;;;;;;5013662;28;20747;-78
2021/10/04 09:27:43;;;;;;;0.80;0.80;;;21.00;99.90;;;;;;5013440;28;20442;-79
2021/10/04 09:30:12;;;;;;;0.50;0.40;;;20.80;99.90;;;;;;5012492;28;20849;-79
2021/10/04 09:32:41;;;;;;;0.50;0.30;;;20.80;99.90;;;;;;5013151;28;20485;-78
2021/10/04 09:35:27;;;;;;;0.67;0.50;;;21.30;99.90;;;;;;5014181;28;20467;-80
2021/10/04 09:38:14;;;;;;;1.10;0.77;;;21.30;99.90;;;;;;5013382;28;20435;-78
2021/10/04 09:40:42;;;;;;;0.50;0.30;;;20.70;99.90;;;;;;5012982;28;20517;-75
2021/10/04 09:43:21;;;;;;;0.50;0.30;;;20.40;99.90;;;;;;5013111;28;20444;-76
2021/10/04 09:45:58;;;;;;;0.50;0.30;;;20.70;99.90;;;;;;5012034;28;20435;-73
2021/10/04 09:48:25;;;;;;;0.50;0.50;;;21.20;99.90;;;;;;5011956;28;20450;-75
2021/10/04 09:50:53;;;;;;;0.50;0.30;;;21.30;99.90;;;;;;5011221;28;20459;-76
2021/10/04 09:53:20;;;;;;;0.50;0.30;;;21.40;99.90;;;;;;5011388;28;20482;-76
2021/10/04 09:55:48;;;;;;;0.50;0.30;;;21.80;99.90;;;;;;5011697;28;20849;-76
2021/10/04 09:58:16;;;;;;;0.50;0.40;;;22.10;99.90;;;;;;5011171;28;20439;-77
2021/10/04 10:00:45;;;;;;;0.50;0.30;;;22.70;99.90;;;;;;5011271;28;20471;-77
2021/10/04 10:03:14;;;;;;;1.37;0.73;;;22.10;99.90;;;;;;5011683;28;20797;-76
2021/10/04 10:05:43;;;;;;;0.50;0.40;;;22.20;99.90;;;;;;5011699;28;20449;-75
2021/10/04 10:08:12;;;;;;;0.67;0.67;;;22.60;99.90;;;;;;5011720;28;20499;-76
2021/10/04 10:10:40;;;;;;;0.50;0.40;;;22.50;99.90;;;;;;5011219;28;20467;-77
2021/10/04 10:13:08;;;;;;;0.50;0.30;;;22.40;99.90;;;;;;5011257;28;20468;-77
2021/10/04 10:15:36;;;;;;;0.50;0.30;;;22.30;99.90;;;;;;5011447;28;20437;-76
2021/10/04 10:18:10;;;;;;;0.63;0.63;;;21.90;99.90;;;;;;5011673;28;20442;-76
2021/10/04 10:20:38;;;;;;;0.50;0.30;;;21.30;99.90;;;;;;5011340;28;20475;-76
2021/10/04 10:23:05;;;;;;;0.93;0.60;;;20.40;99.90;;;;;;5015499;28;20438;-76
2021/10/04 10:25:42;;;;;;;0.50;0.40;;;20.00;99.90;;;;;;5015399;28;20445;-76
2021/10/04 10:28:30;;;;;;;0.50;0.30;;;19.20;99.90;;;;;;5015336;28;20784;-78
2021/10/04 10:30:57;;;;;;;0.50;0.40;;;19.00;99.90;;;;;;5015264;28;20493;-79
2021/10/04 10:33:46;;;;;;;0.60;0.50;;;18.80;99.90;;;;;;5016674;28;20481;-78
2021/10/04 10:36:14;;;;;;;0.50;0.30;;;18.80;99.90;;;;;;5016711;28;20446;-79
2021/10/04 10:39:05;;;;;;;0.60;0.53;;;19.00;99.90;;;;;;5016357;28;20453;-78
2021/10/04 10:41:35;;;;;;;0.50;0.40;;;19.00;99.90;;;;;;5016299;28;20430;-79
2021/10/04 10:44:13;;;;;;;5.13;0.60;;;18.90;99.90;;;;;;5016471;28;20473;-79
2021/10/04 10:46:52;;;;;;;0.50;0.40;;;18.80;99.90;;;;;;5015875;28;20905;-79
2021/10/04 10:49:52;;;;;;;3.70;0.70;;;18.70;99.90;;;;;;5016354;28;20470;-78
2021/10/04 10:52:20;;;;;;;0.50;0.30;;;18.60;99.90;;;;;;5003485;28;20445;-78
2021/10/04 10:54:47;;;;;;;1.67;1.57;;;18.40;99.90;;;;;;5016291;28;20480;-76
2021/10/04 10:57:15;;;;;;;0.50;0.40;;;18.60;99.90;;;;;;5015743;28;20939;-78
2021/10/04 10:59:42;;;;;;;0.50;0.37;;;18.30;99.90;;;;;;5016508;28;20487;-76
2021/10/04 11:02:42;;;;;;;0.50;0.40;;;18.50;99.90;;;;;;5015994;28;20461;-80
2021/10/04 11:05:10;;;;;;;1.70;0.50;;;18.80;99.90;;;;;;5015705;28;20491;-78
2021/10/04 11:07:55;;;;;;;1.43;1.33;;;18.70;99.90;;;;;;5016004;28;20445;-77
2021/10/04 11:10:22;;;;;;;0.50;0.30;;;18.80;99.90;;;;;;5015969;28;20966;-79
2021/10/04 11:13:21;;;;;;;0.50;0.40;;;19.20;99.90;;;;;;5015942;28;20446;-79
2021/10/04 11:15:48;;;;;;;0.50;0.40;;;20.00;99.90;;;;;;5015276;28;20953;-76
2021/10/04 11:18:15;;;;;;;0.60;0.53;;;20.50;99.90;;;;;;5016040;28;20933;-78
2021/10/04 11:20:43;;;;;;;0.50;0.30;;;20.80;99.90;;;;;;5015390;28;20447;-76
2021/10/04 11:23:12;;;;;;;0.63;0.43;;;20.80;99.90;;;;;;5015807;28;20446;-78
2021/10/04 11:25:42;;;;;;;0.50;0.40;;;21.00;99.90;;;;;;5016009;28;20951;-79
2021/10/04 11:28:10;;;;;;;0.50;0.40;;;20.90;99.90;;;;;;5014501;28;20435;-76
2021/10/04 11:30:55;;;;;;;0.50;0.30;;;21.40;99.90;;;;;;5013539;28;20468;-77
2021/10/04 11:33:22;;;;;;;0.60;0.40;;;21.90;99.90;;;;;;5013675;28;20475;-77
2021/10/04 11:35:56;;;;;;;0.50;0.30;;;21.10;99.90;;;;;;5016224;28;20448;-75
2021/10/04 11:38:24;;;;;;;0.50;0.30;;;21.20;99.90;;;;;;5015338;28;20451;-80
2021/10/04 11:40:51;;;;;;;0.97;0.67;;;22.20;99.90;;;;;;5014818;28;20523;-77
2021/10/04 11:43:19;;;;;;;0.87;0.83;;;23.50;99.90;;;;;;5013706;28;20888;-76
2021/10/04 11:45:46;;;;;;;0.50;0.30;;;23.50;99.60;;;;;;5015232;28;20457;-77
2021/10/04 11:48:28;;;;;;;0.50;0.30;;;23.00;99.90;;;;;;5014679;28;20942;-77
2021/10/04 11:50:56;;;;;;;0.50;0.40;;;23.30;99.90;;;;;;5013225;28;20974;-77
2021/10/04 11:53:23;;;;;;;0.67;0.57;;;24.20;95.60;;;;;;5014095;28;20505;-78
2021/10/04 11:55:58;;;;;;;0.50;0.40;;;23.80;98.20;;;;;;5015490;28;20453;-77
2021/10/04 11:58:25;;;;;;;0.50;0.30;;;23.90;93.40;;;;;;5014235;28;20464;-79
2021/10/04 12:00:52;;;;;;;0.50;0.30;;;23.20;96.20;;;;;;5014960;28;20869;-79
2021/10/04 12:03:25;;;;;;;0.50;0.30;;;21.80;97.50;;;;;;5014743;28;20451;-80
2021/10/04 12:05:54;;;;;;;0.50;0.30;;;21.30;99.90;;;;;;5015355;28;20531;-79
2021/10/04 12:08:21;;;;;;;0.50;0.40;;;21.80;99.90;;;;;;5015523;28;20447;-78
2021/10/04 12:10:54;;;;;;;0.50;0.30;;;22.20;99.90;;;;;;5014754;28;20516;-79
2021/10/04 12:13:22;;;;;;;0.60;0.40;;;22.70;99.90;;;;;;5013827;28;20450;-78
2021/10/04 12:15:51;;;;;;;0.50;0.40;;;22.30;99.90;;;;;;5014875;28;20452;-76
2021/10/04 12:18:20;;;;;;;0.50;0.40;;;21.60;99.90;;;;;;5014377;28;20452;-78
2021/10/04 12:20:48;;;;;;;0.50;0.40;;;21.20;99.90;;;;;;5014602;28;20825;-78
2021/10/04 12:23:19;;;;;;;0.50;0.40;;;21.00;99.90;;;;;;5014836;28;20852;-79
2021/10/04 12:25:46;;;;;;;0.50;0.30;;;21.00;99.90;;;;;;5015319;28;20434;-79
2021/10/04 12:28:17;;;;;;;1.07;0.83;;;21.00;99.90;;;;;;5014224;28;20440;-78
2021/10/04 12:30:46;;;;;;;0.50;0.33;;;21.40;99.90;;;;;;5014050;28;20861;-77
2021/10/04 12:33:12;;;;;;;0.60;0.40;;;20.90;99.90;;;;;;5014499;28;20439;-79
2021/10/04 12:35:40;;;;;;;0.63;0.63;;;20.70;99.90;;;;;;5014178;28;20487;-76
2021/10/04 12:38:10;;;;;;;0.90;0.60;;;20.80;99.90;;;;;;5014120;28;20945;-78
2021/10/04 12:40:44;;;;;;;0.50;0.30;;;21.00;99.90;;;;;;5013778;28;20993;-79
2021/10/04 12:43:13;;;;;;;0.50;0.40;;;21.40;99.90;;;;;;5014699;28;20431;-79
2021/10/04 12:45:52;;;;;;;0.50;0.40;;;21.00;99.90;;;;;;5013673;28;20466;-79
2021/10/04 12:48:19;;;;;;;0.50;0.30;;;20.30;99.90;;;;;;5013875;28;20482;-78
2021/10/04 12:50:48;;;;;;;0.50;0.30;;;20.40;99.90;;;;;;5013431;28;20471;-79
2021/10/04 12:53:22;;;;;;;0.50;0.40;;;20.50;99.90;;;;;;5013943;28;20474;-78
2021/10/04 12:55:57;;;;;;;0.50;0.30;;;20.40;99.90;;;;;;5013809;28;20863;-79